Time;durP1;ratioP1;P1;durP2;ratioP2;P2;SDS_P1;SDS_P2;PMS_P1;PMS_P2;Temp;Humidity;BMP_temperature;BMP_pressure;BME280_temperature;BME280_humidity;BME280_pressure;Samples;Min_cycle;Max_cycle;Signal;HPM_P1;HPM_P2
2023/04/11 00:01:33;;;;;;;7.75;1.77;;;6.40;99.90;;;;;;7372127;19;20026;-65
2023/04/11 00:04:00;;;;;;;8.50;2.03;;;6.40;99.90;;;;;;7371934;19;20014;-65
2023/04/11 00:06:27;;;;;;;9.18;1.73;;;6.40;99.90;;;;;;7376540;19;20086;-65
2023/04/11 00:08:54;;;;;;;8.35;1.95;;;6.40;99.90;;;;;;7370545;19;20021;-66
2023/04/11 00:11:20;;;;;;;6.38;2.03;;;6.40;99.90;;;;;;7372891;19;20022;-67
2023/04/11 00:13:47;;;;;;;8.45;1.70;;;6.40;99.90;;;;;;7367624;19;20061;-68
2023/04/11 00:16:15;;;;;;;9.23;2.75;;;6.40;99.90;;;;;;7370116;19;20022;-68
2023/04/11 00:18:43;;;;;;;6.70;2.17;;;6.40;99.90;;;;;;7370832;19;20017;-67
2023/04/11 00:21:10;;;;;;;6.10;1.80;;;6.40;99.90;;;;;;7370459;19;21178;-68
2023/04/11 00:23:36;;;;;;;6.85;2.00;;;6.40;99.90;;;;;;7369995;19;20466;-68
2023/04/11 00:26:04;;;;;;;8.30;2.28;;;6.50;99.90;;;;;;7359772;19;20406;-67
2023/04/11 00:28:30;;;;;;;8.63;2.90;;;6.50;99.90;;;;;;7358182;19;20775;-67
2023/04/11 00:30:56;;;;;;;9.38;3.63;;;6.40;99.90;;;;;;7353518;19;20020;-67
2023/04/11 00:33:23;;;;;;;7.60;3.28;;;6.30;99.90;;;;;;7356778;19;20985;-67
2023/04/11 00:35:52;;;;;;;10.10;4.47;;;6.20;99.90;;;;;;7365642;19;20011;-67
2023/04/11 00:38:18;;;;;;;12.65;3.80;;;6.20;99.90;;;;;;7366303;19;21382;-67
2023/04/11 00:40:45;;;;;;;7.88;2.40;;;6.20;99.90;;;;;;7361708;19;20879;-67
2023/04/11 00:43:12;;;;;;;10.75;2.85;;;6.20;99.90;;;;;;7363185;19;20489;-68
2023/04/11 00:45:39;;;;;;;8.18;2.55;;;6.10;99.90;;;;;;7361942;19;20014;-67
2023/04/11 00:48:06;;;;;;;7.82;2.55;;;6.20;99.90;;;;;;7367525;19;20015;-67
2023/04/11 00:50:32;;;;;;;8.95;2.40;;;6.20;99.90;;;;;;7362890;19;20019;-67
2023/04/11 00:52:59;;;;;;;12.27;4.03;;;6.20;99.90;;;;;;7363598;19;21105;-65
2023/04/11 00:55:26;;;;;;;11.52;4.18;;;6.10;99.90;;;;;;7363584;19;21825;-66
2023/04/11 00:57:54;;;;;;;11.50;4.22;;;6.20;99.90;;;;;;7358540;19;20028;-66
2023/04/11 01:00:21;;;;;;;10.90;3.45;;;6.20;99.90;;;;;;7359491;19;20018;-67
2023/04/11 01:02:52;;;;;;;12.35;3.95;;;6.30;99.90;;;;;;7359872;19;20026;-66
2023/04/11 01:05:19;;;;;;;15.18;5.22;;;6.30;99.90;;;;;;7354133;19;20046;-66
2023/04/11 01:07:49;;;;;;;12.68;4.13;;;6.40;99.90;;;;;;7360678;19;20018;-66
2023/04/11 01:10:17;;;;;;;12.73;2.92;;;6.50;99.90;;;;;;7367117;19;20031;-66
2023/04/11 01:12:45;;;;;;;9.23;3.25;;;6.50;99.90;;;;;;7362298;19;20019;-66
2023/04/11 01:15:11;;;;;;;10.23;2.67;;;6.60;99.90;;;;;;7357323;19;20027;-67
2023/04/11 01:17:40;;;;;;;10.70;3.60;;;6.60;99.90;;;;;;7359618;19;20031;-66
2023/04/11 01:20:08;;;;;;;11.02;3.33;;;6.70;99.90;;;;;;7359055;19;20018;-67
2023/04/11 01:22:36;;;;;;;9.32;2.90;;;6.70;99.90;;;;;;7361122;19;20014;-67
2023/04/11 01:25:03;;;;;;;11.20;2.67;;;6.70;99.90;;;;;;7356477;19;20890;-67
2023/04/11 01:27:32;;;;;;;14.80;3.85;;;6.80;99.90;;;;;;7357810;19;20024;-66
2023/04/11 01:30:00;;;;;;;15.70;4.22;;;6.70;99.90;;;;;;7358414;19;20097;-68
2023/04/11 01:32:26;;;;;;;12.20;3.78;;;6.70;99.90;;;;;;7358922;19;20239;-67
2023/04/11 01:34:56;;;;;;;15.48;5.50;;;6.80;99.90;;;;;;7356328;19;20143;-67
2023/04/11 01:37:24;;;;;;;14.10;4.15;;;6.80;99.90;;;;;;7347399;19;20018;-67
2023/04/11 01:40:00;;;;;;;11.95;3.75;;;6.70;99.90;;;;;;7350671;19;20916;-66
2023/04/11 01:42:28;;;;;;;9.20;3.33;;;6.70;99.90;;;;;;7360391;19;20022;-67
2023/04/11 01:44:58;;;;;;;11.00;3.40;;;6.70;99.90;;;;;;7354030;19;20014;-67
2023/04/11 01:47:27;;;;;;;12.85;4.38;;;6.60;99.90;;;;;;7360292;19;20748;-67
2023/04/11 01:49:54;;;;;;;9.88;3.78;;;6.50;99.90;;;;;;7368437;19;20102;-66
2023/04/11 01:52:23;;;;;;;12.30;4.07;;;6.60;99.90;;;;;;7370299;19;20026;-66
2023/04/11 01:54:49;;;;;;;12.98;4.38;;;6.50;99.90;;;;;;7368161;19;20065;-67
2023/04/11 01:57:17;;;;;;;13.40;4.20;;;6.50;99.90;;;;;;7365017;19;20028;-67
2023/04/11 01:59:43;;;;;;;10.70;4.43;;;6.50;99.90;;;;;;7365321;19;20036;-66
2023/04/11 02:02:09;;;;;;;13.90;4.40;;;6.50;99.90;;;;;;7367264;19;20015;-68
2023/04/11 02:04:36;;;;;;;13.23;4.63;;;6.50;99.90;;;;;;7364618;19;20089;-67
2023/04/11 02:07:02;;;;;;;13.70;4.30;;;6.50;99.90;;;;;;7366483;19;20014;-67
2023/04/11 02:09:36;;;;;;;14.10;5.22;;;6.50;99.90;;;;;;7357105;19;20034;-66
2023/04/11 02:12:02;;;;;;;11.73;4.32;;;6.50;99.90;;;;;;7359848;19;20018;-67
2023/04/11 02:14:42;;;;;;;14.93;5.07;;;6.50;99.90;;;;;;7366150;19;20029;-67
2023/04/11 02:17:11;;;;;;;14.43;5.28;;;6.50;99.90;;;;;;7358146;19;20029;-68
2023/04/11 02:19:44;;;;;;;12.88;5.32;;;6.50;99.90;;;;;;7368861;19;20018;-66
2023/04/11 02:22:15;;;;;;;11.65;4.70;;;6.50;99.90;;;;;;7359954;19;20022;-66
2023/04/11 02:24:41;;;;;;;17.02;4.22;;;6.50;99.90;;;;;;7363015;19;20019;-67
2023/04/11 02:27:11;;;;;;;14.63;5.43;;;6.60;99.90;;;;;;7355168;19;20486;-65
2023/04/11 02:29:37;;;;;;;18.48;5.45;;;6.70;99.90;;;;;;7359090;19;20021;-67
2023/04/11 02:32:03;;;;;;;19.65;5.10;;;6.60;99.90;;;;;;7351320;19;20018;-67
2023/04/11 02:34:30;;;;;;;14.43;4.90;;;6.60;99.90;;;;;;7351069;19;20015;-67
2023/04/11 02:36:56;;;;;;;19.23;6.38;;;6.70;99.90;;;;;;7353976;19;20026;-67
2023/04/11 02:39:33;;;;;;;11.75;3.28;;;6.70;99.90;;;;;;7365102;19;20039;-67
2023/04/11 02:42:04;;;;;;;10.00;3.53;;;6.70;99.90;;;;;;7356386;19;20026;-65
2023/04/11 02:44:32;;;;;;;12.63;4.25;;;6.70;99.90;;;;;;7355562;19;20669;-65
2023/04/11 02:46:59;;;;;;;10.35;3.20;;;6.80;99.90;;;;;;7358142;19;20014;-66
2023/04/11 02:49:27;;;;;;;11.02;3.45;;;6.80;99.90;;;;;;7354903;19;20018;-68
2023/04/11 02:51:53;;;;;;;12.48;2.63;;;6.60;99.90;;;;;;7355656;19;20022;-68
2023/04/11 02:54:20;;;;;;;14.98;3.83;;;6.70;99.90;;;;;;7364321;19;20025;-68
2023/04/11 02:56:46;;;;;;;12.15;3.65;;;6.70;99.90;;;;;;7362963;19;20015;-68
2023/04/11 02:59:13;;;;;;;11.43;4.20;;;6.70;99.90;;;;;;7364040;19;20018;-67
2023/04/11 03:01:43;;;;;;;12.55;3.80;;;6.70;99.90;;;;;;7364842;19;20022;-67
2023/04/11 03:04:09;;;;;;;13.73;4.65;;;6.70;99.90;;;;;;7372273;19;20014;-68
2023/04/11 03:06:45;;;;;;;10.45;3.90;;;6.70;99.90;;;;;;7370568;19;20807;-67
2023/04/11 03:09:12;;;;;;;10.68;3.97;;;6.70;99.90;;;;;;7366068;19;20090;-67
2023/04/11 03:11:39;;;;;;;19.85;5.10;;;6.70;99.90;;;;;;7374320;19;20022;-65
2023/04/11 03:14:06;;;;;;;21.13;5.72;;;6.80;99.90;;;;;;7370701;19;20011;-66
2023/04/11 03:16:32;;;;;;;15.38;4.97;;;6.70;99.90;;;;;;7370935;19;20807;-65
2023/04/11 03:18:59;;;;;;;26.10;5.63;;;6.80;99.90;;;;;;7369729;19;20591;-67
2023/04/11 03:21:28;;;;;;;26.13;5.88;;;6.80;99.90;;;;;;7365584;19;20740;-69
2023/04/11 03:23:54;;;;;;;20.48;5.05;;;6.90;99.90;;;;;;7363976;19;20620;-68
2023/04/11 03:26:26;;;;;;;23.15;5.25;;;6.90;99.90;;;;;;7362408;19;20038;-66
2023/04/11 03:28:55;;;;;;;26.35;5.75;;;6.90;99.90;;;;;;7367796;19;20777;-68
2023/04/11 03:31:22;;;;;;;21.10;5.55;;;6.90;99.90;;;;;;7372493;19;20057;-66
2023/04/11 03:33:50;;;;;;;23.23;6.13;;;6.90;99.90;;;;;;7370264;19;20021;-67
2023/04/11 03:36:17;;;;;;;24.83;5.90;;;7.00;99.90;;;;;;7372734;19;20022;-68
2023/04/11 03:38:44;;;;;;;25.17;5.80;;;7.00;99.90;;;;;;7371255;19;20018;-66
2023/04/11 03:41:10;;;;;;;33.85;5.72;;;7.10;99.90;;;;;;7371775;19;20151;-66
2023/04/11 03:43:36;;;;;;;28.77;6.70;;;7.10;99.90;;;;;;7373560;19;20906;-66
2023/04/11 03:46:03;;;;;;;17.27;4.82;;;7.10;99.90;;;;;;7370770;19;20047;-67
2023/04/11 03:48:37;;;;;;;22.08;5.82;;;7.10;99.90;;;;;;7375070;19;20018;-68
2023/04/11 03:51:08;;;;;;;17.40;3.92;;;7.20;99.90;;;;;;7370696;19;20018;-67
2023/04/11 03:53:51;;;;;;;21.92;4.88;;;7.20;99.90;;;;;;7367526;19;20018;-67
2023/04/11 03:56:25;;;;;;;19.08;3.72;;;7.20;99.90;;;;;;7365532;19;20031;-66
2023/04/11 03:58:53;;;;;;;19.35;4.35;;;7.30;99.90;;;;;;7358720;19;20396;-67
2023/04/11 04:01:21;;;;;;;17.23;4.05;;;7.30;99.90;;;;;;7369784;19;20018;-66
2023/04/11 04:03:50;;;;;;;14.20;3.80;;;7.30;99.90;;;;;;7373616;19;20047;-68
2023/04/11 04:06:17;;;;;;;16.30;4.55;;;7.30;99.90;;;;;;7370791;19;20031;-67
2023/04/11 04:08:46;;;;;;;14.65;3.80;;;7.40;99.90;;;;;;7369289;19;20035;-67
2023/04/11 04:11:12;;;;;;;14.90;2.80;;;7.40;99.90;;;;;;7368814;19;20501;-68
2023/04/11 04:13:39;;;;;;;12.57;3.17;;;7.30;99.90;;;;;;7370738;19;20029;-68
2023/04/11 04:16:16;;;;;;;12.05;2.97;;;7.40;99.90;;;;;;7367104;19;20048;-68
2023/04/11 04:18:45;;;;;;;13.68;3.15;;;7.30;99.90;;;;;;7371383;19;20755;-68
2023/04/11 04:21:12;;;;;;;9.75;3.05;;;7.30;99.90;;;;;;7364981;19;20019;-67
2023/04/11 04:23:46;;;;;;;11.95;2.60;;;7.30;99.90;;;;;;7371626;19;20026;-68
2023/04/11 04:26:23;;;;;;;9.70;2.25;;;7.30;99.90;;;;;;7358249;19;20018;-68
2023/04/11 04:29:03;;;;;;;13.05;2.90;;;7.30;99.90;;;;;;7356457;19;20018;-68
2023/04/11 04:31:35;;;;;;;10.35;3.10;;;7.30;99.90;;;;;;7358356;19;20018;-67
2023/04/11 04:34:09;;;;;;;12.25;2.65;;;7.20;99.90;;;;;;7365188;19;20501;-68
2023/04/11 04:36:48;;;;;;;13.25;3.33;;;7.20;99.90;;;;;;7363183;19;20015;-66
2023/04/11 04:39:24;;;;;;;16.30;3.50;;;7.30;99.90;;;;;;7363293;19;20074;-66
2023/04/11 04:41:57;;;;;;;11.55;3.20;;;7.20;99.90;;;;;;7363095;19;20026;-68
2023/04/11 04:44:26;;;;;;;8.77;2.78;;;7.30;99.90;;;;;;7365133;19;20030;-65
2023/04/11 04:46:57;;;;;;;14.07;2.88;;;7.30;99.90;;;;;;7361493;19;20019;-66
2023/04/11 04:49:29;;;;;;;12.13;2.85;;;7.30;99.90;;;;;;7360586;19;20032;-65
2023/04/11 04:51:56;;;;;;;14.05;3.05;;;7.20;99.90;;;;;;7360662;19;20505;-66
2023/04/11 04:54:22;;;;;;;8.98;2.67;;;7.20;99.90;;;;;;7363416;19;20076;-66
2023/04/11 04:56:49;;;;;;;16.45;4.18;;;7.20;99.90;;;;;;7364023;19;20508;-65
2023/04/11 04:59:17;;;;;;;8.32;3.08;;;7.20;99.90;;;;;;7364218;19;20366;-66
2023/04/11 05:01:52;;;;;;;10.63;3.22;;;7.10;99.90;;;;;;7364706;19;20063;-66
2023/04/11 05:04:24;;;;;;;11.90;3.05;;;7.20;99.90;;;;;;7363209;19;20522;-66
2023/04/11 05:07:00;;;;;;;11.23;3.10;;;7.10;99.90;;;;;;7366374;19;20546;-68
2023/04/11 05:09:35;;;;;;;13.75;3.00;;;7.10;99.90;;;;;;7364036;19;20815;-66
2023/04/11 05:12:16;;;;;;;12.40;3.05;;;7.10;99.90;;;;;;7364457;19;20036;-68
2023/04/11 05:14:42;;;;;;;11.27;2.83;;;7.10;99.90;;;;;;7365287;19;20018;-66
2023/04/11 05:17:09;;;;;;;12.40;3.40;;;7.10;99.90;;;;;;7366327;19;20028;-66
2023/04/11 05:19:35;;;;;;;14.68;2.97;;;7.10;99.90;;;;;;7360204;19;20022;-66
2023/04/11 05:22:02;;;;;;;14.50;3.20;;;7.10;99.90;;;;;;7356646;19;20026;-68
2023/04/11 05:24:31;;;;;;;13.57;3.08;;;7.20;99.90;;;;;;7357904;19;20022;-68
2023/04/11 05:26:59;;;;;;;7.82;3.53;;;7.10;99.90;;;;;;7366470;19;20015;-67
2023/04/11 05:29:26;;;;;;;10.25;2.92;;;7.10;99.90;;;;;;7368699;19;20011;-68
2023/04/11 05:32:06;;;;;;;10.40;3.28;;;7.10;99.90;;;;;;7369246;19;20022;-67
2023/04/11 05:34:33;;;;;;;11.50;3.25;;;7.00;99.90;;;;;;7369092;19;20550;-66
2023/04/11 05:37:00;;;;;;;11.35;3.15;;;7.00;99.90;;;;;;7367456;19;20018;-66
2023/04/11 05:39:26;;;;;;;11.02;3.38;;;7.00;99.90;;;;;;7369570;19;20011;-69
2023/04/11 05:41:53;;;;;;;9.00;3.17;;;7.00;99.90;;;;;;7367415;19;20026;-68
2023/04/11 05:44:20;;;;;;;13.40;2.97;;;7.00;99.90;;;;;;7366728;19;20077;-69
2023/04/11 05:46:46;;;;;;;8.35;2.70;;;7.00;99.90;;;;;;7366666;19;20907;-68
2023/04/11 05:49:12;;;;;;;10.45;3.38;;;7.10;99.90;;;;;;7356936;19;20018;-66
2023/04/11 05:51:39;;;;;;;10.30;2.60;;;7.10;99.90;;;;;;7364889;19;20052;-64
2023/04/11 05:54:07;;;;;;;8.85;2.85;;;7.10;99.90;;;;;;7367500;19;20017;-70
2023/04/11 05:56:34;;;;;;;17.23;3.50;;;7.20;99.90;;;;;;7371899;19;20021;-69
2023/04/11 05:59:00;;;;;;;9.40;2.65;;;7.20;99.90;;;;;;7367030;19;20499;-70
2023/04/11 06:01:29;;;;;;;7.95;2.47;;;7.20;99.90;;;;;;7368086;19;20061;-66
2023/04/11 06:03:58;;;;;;;10.43;2.70;;;7.20;99.90;;;;;;7367673;19;20019;-66
2023/04/11 06:06:24;;;;;;;10.32;2.72;;;7.20;99.90;;;;;;7369146;19;20019;-65
2023/04/11 06:08:51;;;;;;;18.25;3.30;;;7.20;99.90;;;;;;7364436;19;20018;-65
2023/04/11 06:11:17;;;;;;;8.15;2.70;;;7.20;99.90;;;;;;7368678;19;20035;-65
2023/04/11 06:13:44;;;;;;;10.88;3.30;;;7.20;99.90;;;;;;7365484;19;20026;-64
2023/04/11 06:16:10;;;;;;;9.98;2.70;;;7.20;99.90;;;;;;7364054;19;21768;-71
2023/04/11 06:18:36;;;;;;;8.90;3.20;;;7.30;99.90;;;;;;7365099;19;20022;-66
2023/04/11 06:21:03;;;;;;;10.52;2.40;;;7.30;99.90;;;;;;7364424;19;20368;-70
2023/04/11 06:23:30;;;;;;;10.27;2.80;;;7.30;99.90;;;;;;7369057;19;20662;-65
2023/04/11 06:25:56;;;;;;;13.40;2.67;;;7.30;99.90;;;;;;7364538;19;20043;-65
2023/04/11 06:28:24;;;;;;;15.80;3.40;;;7.30;99.90;;;;;;7369251;19;20052;-64
2023/04/11 06:30:51;;;;;;;12.13;2.95;;;7.30;99.90;;;;;;7374244;19;20018;-66
2023/04/11 06:33:17;;;;;;;12.23;3.15;;;7.30;99.90;;;;;;7371035;19;20015;-66
2023/04/11 06:35:43;;;;;;;12.15;2.63;;;7.30;99.90;;;;;;7376893;19;20035;-66
2023/04/11 06:38:09;;;;;;;12.50;3.13;;;7.30;99.90;;;;;;7367819;19;20038;-65
2023/04/11 06:40:35;;;;;;;10.52;3.30;;;7.40;99.90;;;;;;7369447;19;20025;-65
2023/04/11 06:43:02;;;;;;;8.98;2.95;;;7.40;99.90;;;;;;7373075;19;20035;-65
2023/04/11 06:45:30;;;;;;;14.82;3.35;;;7.50;99.90;;;;;;7374038;19;20018;-69
2023/04/11 06:47:56;;;;;;;11.30;2.70;;;7.50;99.90;;;;;;7373909;19;20053;-70
2023/04/11 06:50:22;;;;;;;10.20;3.15;;;7.50;99.90;;;;;;7375828;19;20026;-72
2023/04/11 06:52:49;;;;;;;12.15;2.53;;;7.60;99.90;;;;;;7367086;19;20494;-72
2023/04/11 06:55:16;;;;;;;15.25;2.72;;;7.50;99.90;;;;;;7368807;19;20018;-71
2023/04/11 06:57:43;;;;;;;15.48;3.92;;;7.50;99.90;;;;;;7368389;19;20022;-69
2023/04/11 07:00:11;;;;;;;10.57;2.88;;;7.40;99.90;;;;;;7371311;19;20022;-70
2023/04/11 07:02:38;;;;;;;9.93;2.92;;;7.40;99.90;;;;;;7373847;19;20050;-71
2023/04/11 07:05:05;;;;;;;11.10;2.88;;;7.50;99.90;;;;;;7375147;19;20007;-71
2023/04/11 07:07:31;;;;;;;10.30;2.88;;;7.50;99.90;;;;;;7375314;19;20068;-71
2023/04/11 07:09:58;;;;;;;12.20;2.50;;;7.60;99.90;;;;;;7371636;19;20026;-71
2023/04/11 07:12:24;;;;;;;12.18;2.63;;;7.70;99.90;;;;;;7374259;19;20028;-71
2023/04/11 07:14:50;;;;;;;10.80;2.92;;;7.80;99.90;;;;;;7371772;19;20014;-71
2023/04/11 07:17:16;;;;;;;15.02;2.33;;;7.90;99.90;;;;;;7374945;19;20010;-71
2023/04/11 07:19:42;;;;;;;12.05;2.58;;;7.90;99.90;;;;;;7375383;19;20029;-72
2023/04/11 07:22:09;;;;;;;12.02;2.30;;;8.00;99.90;;;;;;7370339;19;20753;-71
2023/04/11 07:24:35;;;;;;;14.35;3.47;;;8.00;99.90;;;;;;7372784;19;20014;-67
2023/04/11 07:27:02;;;;;;;9.63;2.55;;;8.10;99.90;;;;;;7369467;19;20044;-72
2023/04/11 07:29:28;;;;;;;13.90;2.83;;;8.10;99.90;;;;;;7374336;19;20022;-72
2023/04/11 07:31:57;;;;;;;13.25;2.60;;;8.10;99.90;;;;;;7370143;19;20025;-71
2023/04/11 07:34:23;;;;;;;10.23;2.35;;;8.10;99.90;;;;;;7372031;19;20030;-65
2023/04/11 07:36:49;;;;;;;13.15;2.58;;;8.10;99.90;;;;;;7367839;19;20019;-73
2023/04/11 07:39:16;;;;;;;9.57;2.50;;;8.10;99.90;;;;;;7365996;19;20021;-70
2023/04/11 07:41:43;;;;;;;12.40;2.78;;;8.10;99.90;;;;;;7373706;19;20035;-70
2023/04/11 07:44:10;;;;;;;12.82;2.70;;;8.00;99.90;;;;;;7371384;19;20490;-72
2023/04/11 07:46:36;;;;;;;8.82;2.30;;;8.00;99.90;;;;;;7374333;19;20014;-71
2023/04/11 07:49:02;;;;;;;10.35;2.70;;;7.90;99.90;;;;;;7373448;19;20028;-71
2023/04/11 07:51:32;;;;;;;11.57;2.45;;;7.90;99.90;;;;;;7374470;19;20022;-71
2023/04/11 07:53:58;;;;;;;13.68;2.30;;;7.90;99.90;;;;;;7370775;19;20100;-71
2023/04/11 07:56:26;;;;;;;10.48;2.38;;;8.00;99.90;;;;;;7373941;19;20010;-70
2023/04/11 07:58:53;;;;;;;13.10;2.83;;;8.10;99.90;;;;;;7372775;19;20402;-71
2023/04/11 08:01:24;;;;;;;13.30;2.55;;;8.10;99.90;;;;;;7371221;19;20014;-72
2023/04/11 08:03:52;;;;;;;13.20;2.67;;;8.10;99.90;;;;;;7372922;19;20427;-72
2023/04/11 08:06:19;;;;;;;10.80;2.13;;;8.10;99.90;;;;;;7371671;19;20018;-74
2023/04/11 08:08:46;;;;;;;14.63;3.13;;;8.00;99.90;;;;;;7374952;19;20766;-69
2023/04/11 08:11:14;;;;;;;8.85;2.10;;;8.10;99.90;;;;;;7374444;19;20090;-65
2023/04/11 08:13:41;;;;;;;11.77;2.40;;;8.10;99.90;;;;;;7368530;19;20492;-65
2023/04/11 08:16:10;;;;;;;9.77;2.35;;;8.10;99.90;;;;;;7370445;19;20473;-65
2023/04/11 08:18:40;;;;;;;9.20;2.75;;;8.40;99.90;;;;;;7366911;19;20762;-65
2023/04/11 08:21:09;;;;;;;10.68;2.50;;;8.70;99.90;;;;;;7368204;19;20014;-65
2023/04/11 08:23:36;;;;;;;10.57;2.40;;;8.80;99.90;;;;;;7361327;19;20375;-65
2023/04/11 08:26:02;;;;;;;19.35;2.83;;;8.90;99.90;;;;;;7363751;19;20985;-65
2023/04/11 08:28:28;;;;;;;10.15;2.20;;;9.10;99.90;;;;;;7360685;19;20583;-65
2023/04/11 08:30:57;;;;;;;8.40;1.70;;;9.10;99.90;;;;;;7366741;19;20602;-66
2023/04/11 08:33:24;;;;;;;13.43;2.65;;;9.00;99.90;;;;;;7363840;19;20762;-65
2023/04/11 08:35:51;;;;;;;5.65;1.70;;;9.00;99.90;;;;;;7363828;19;20517;-65
2023/04/11 08:38:17;;;;;;;11.32;2.08;;;9.30;99.90;;;;;;7361538;19;20028;-65
2023/04/11 08:40:44;;;;;;;12.02;2.67;;;9.90;99.90;;;;;;7366593;19;20082;-65
2023/04/11 08:43:13;;;;;;;10.60;2.15;;;10.60;99.90;;;;;;7367759;19;20121;-65
2023/04/11 08:45:40;;;;;;;8.73;2.30;;;11.30;99.90;;;;;;7370771;19;20017;-65
2023/04/11 08:48:07;;;;;;;11.25;2.40;;;11.80;99.90;;;;;;7371326;19;20014;-73
2023/04/11 08:50:34;;;;;;;9.60;1.92;;;11.30;99.90;;;;;;7370846;19;20025;-72
2023/04/11 08:53:03;;;;;;;11.32;2.13;;;10.70;99.90;;;;;;7372221;19;20024;-73
2023/04/11 08:55:30;;;;;;;6.40;1.90;;;10.50;99.90;;;;;;7370144;19;20493;-73
2023/04/11 08:58:01;;;;;;;9.23;1.85;;;10.40;99.90;;;;;;7369542;19;20045;-66
2023/04/11 09:00:28;;;;;;;8.82;1.88;;;10.10;99.90;;;;;;7371452;19;20063;-64
2023/04/11 09:03:04;;;;;;;7.93;2.05;;;10.00;99.90;;;;;;7368275;19;20933;-65
2023/04/11 09:05:37;;;;;;;7.72;1.67;;;10.20;99.90;;;;;;7372488;19;20120;-72
2023/04/11 09:08:05;;;;;;;8.80;2.13;;;11.00;99.90;;;;;;7366782;19;20046;-73
2023/04/11 09:10:32;;;;;;;10.10;2.25;;;11.70;99.90;;;;;;7369087;19;20447;-73
2023/04/11 09:12:58;;;;;;;9.60;2.03;;;12.20;99.90;;;;;;7368908;19;20662;-65
2023/04/11 09:15:29;;;;;;;9.88;2.20;;;12.80;99.90;;;;;;7371202;19;20462;-65
2023/04/11 09:17:56;;;;;;;11.02;2.15;;;12.80;99.90;;;;;;7368545;19;20014;-65
2023/04/11 09:20:25;;;;;;;8.52;1.90;;;12.60;99.90;;;;;;7370154;19;20593;-64
2023/04/11 09:22:56;;;;;;;8.77;1.80;;;12.80;99.90;;;;;;7366559;19;20033;-65
2023/04/11 09:25:45;;;;;;;8.27;2.20;;;12.60;99.90;;;;;;7369512;19;20007;-65
2023/04/11 09:28:11;;;;;;;7.18;1.58;;;12.10;99.90;;;;;;7360011;19;20625;-65
2023/04/11 09:30:37;;;;;;;9.73;2.42;;;11.90;99.90;;;;;;7361118;19;20022;-64
2023/04/11 09:33:24;;;;;;;8.48;2.40;;;11.40;99.90;;;;;;7365781;19;20386;-65
2023/04/11 09:35:54;;;;;;;11.43;2.13;;;11.40;99.90;;;;;;7368469;19;20014;-73
2023/04/11 09:38:32;;;;;;;6.38;1.55;;;11.90;99.90;;;;;;7368367;19;20494;-64
2023/04/11 09:40:59;;;;;;;9.32;1.73;;;12.50;99.90;;;;;;7368795;19;20018;-64
2023/04/11 09:43:26;;;;;;;10.80;1.92;;;13.10;99.90;;;;;;7366086;19;20478;-64
2023/04/11 09:46:10;;;;;;;10.50;2.15;;;13.80;99.90;;;;;;7371072;19;20766;-64
2023/04/11 09:48:37;;;;;;;5.22;1.40;;;13.70;99.90;;;;;;7366530;19;20023;-64
2023/04/11 09:51:05;;;;;;;8.63;1.88;;;13.70;99.90;;;;;;7368554;19;20572;-64
2023/04/11 09:53:36;;;;;;;7.35;1.90;;;14.30;99.90;;;;;;7367299;19;20478;-73
2023/04/11 09:56:03;;;;;;;8.75;2.03;;;13.70;99.90;;;;;;7368589;19;20014;-73
2023/04/11 09:58:32;;;;;;;9.23;1.92;;;13.80;99.90;;;;;;7362866;19;20014;-72
2023/04/11 10:01:03;;;;;;;6.93;2.00;;;13.80;99.90;;;;;;7370075;19;20022;-75
2023/04/11 10:03:37;;;;;;;11.18;2.10;;;13.40;99.90;;;;;;7374593;19;20026;-74
2023/04/11 10:06:08;;;;;;;7.20;2.05;;;12.50;99.90;;;;;;7378578;19;20018;-74
2023/04/11 10:08:40;;;;;;;7.45;1.65;;;12.40;99.90;;;;;;7374675;19;20798;-74
2023/04/11 10:11:09;;;;;;;11.52;2.20;;;12.90;99.90;;;;;;7377805;19;20601;-74
2023/04/11 10:13:38;;;;;;;11.52;2.05;;;13.30;99.90;;;;;;7376268;19;20051;-74
2023/04/11 10:16:13;;;;;;;10.30;2.30;;;14.00;99.90;;;;;;7375299;19;20026;-74
2023/04/11 10:19:03;;;;;;;10.27;2.72;;;14.20;99.90;;;;;;7368958;19;20504;-74
2023/04/11 10:21:29;;;;;;;10.45;2.10;;;14.30;99.90;;;;;;7372833;19;20601;-74
2023/04/11 10:24:12;;;;;;;10.57;2.72;;;14.60;99.90;;;;;;7374026;19;20078;-74
2023/04/11 10:26:49;;;;;;;9.25;2.40;;;13.70;99.90;;;;;;7377245;19;20077;-74
2023/04/11 10:29:44;;;;;;;10.18;2.10;;;12.60;99.90;;;;;;7377951;19;20011;-65
2023/04/11 10:32:19;;;;;;;11.95;4.72;;;12.20;99.90;;;;;;7375697;19;20082;-65
2023/04/11 10:34:51;;;;;;;10.45;2.38;;;11.60;99.90;;;;;;7368430;19;20022;-64
2023/04/11 10:37:29;;;;;;;12.18;2.45;;;11.20;99.90;;;;;;7371574;19;20014;-65
2023/04/11 10:40:31;;;;;;;10.68;2.10;;;10.60;99.90;;;;;;7369503;19;20018;-65
2023/04/11 10:42:54;;;;;;;10.05;1.90;;;10.50;99.90;;;;;;7373776;19;20011;-65
2023/04/11 10:45:28;;;;;;;9.68;2.67;;;10.30;99.90;;;;;;7373140;19;20022;-65
2023/04/11 10:48:04;;;;;;;9.50;2.08;;;10.20;99.90;;;;;;7372802;19;20029;-65
2023/04/11 10:50:30;;;;;;;9.15;2.05;;;10.00;99.90;;;;;;7366697;19;20022;-65
2023/04/11 10:52:58;;;;;;;10.88;2.08;;;9.90;99.90;;;;;;7373057;19;20042;-65
2023/04/11 10:55:26;;;;;;;11.02;2.20;;;10.00;99.90;;;;;;7375096;19;20762;-70
2023/04/11 10:58:12;;;;;;;13.90;2.80;;;11.10;99.90;;;;;;7376215;19;20014;-70
2023/04/11 11:00:48;;;;;;;13.32;2.40;;;11.20;99.90;;;;;;7376317;19;20585;-70
2023/04/11 11:03:17;;;;;;;10.10;2.15;;;10.90;99.90;;;;;;7372540;19;20029;-69
2023/04/11 11:05:43;;;;;;;10.30;2.42;;;11.00;99.90;;;;;;7374181;19;20735;-70
2023/04/11 11:08:10;;;;;;;11.65;2.67;;;11.20;99.90;;;;;;7372165;19;20371;-69
2023/04/11 11:10:47;;;;;;;8.25;2.28;;;11.40;99.90;;;;;;7373477;19;20391;-70
2023/04/11 11:13:15;;;;;;;9.50;2.10;;;11.30;99.90;;;;;;7370715;19;20015;-70
2023/04/11 11:15:47;;;;;;;9.02;2.08;;;11.80;99.90;;;;;;7367388;19;20675;-71
2023/04/11 11:18:14;;;;;;;9.65;2.33;;;12.30;99.90;;;;;;7368746;19;20635;-64
2023/04/11 11:20:41;;;;;;;14.27;2.45;;;12.10;99.90;;;;;;7370276;19;20018;-65
2023/04/11 11:23:08;;;;;;;10.73;2.58;;;12.20;99.90;;;;;;7366914;19;20090;-65
2023/04/11 11:25:36;;;;;;;6.57;1.70;;;11.70;99.90;;;;;;7370849;19;20011;-65
2023/04/11 11:28:07;;;;;;;9.63;2.20;;;12.40;99.90;;;;;;7372145;19;20474;-65
2023/04/11 11:30:35;;;;;;;8.15;1.88;;;13.10;99.90;;;;;;7374075;19;20499;-64
2023/04/11 11:33:19;;;;;;;11.05;2.22;;;13.00;99.90;;;;;;7368333;19;20034;-63
2023/04/11 11:35:57;;;;;;;8.40;2.03;;;12.70;99.90;;;;;;7371030;19;20022;-70
2023/04/11 11:38:29;;;;;;;8.00;1.50;;;12.20;99.90;;;;;;7368848;19;20011;-70
2023/04/11 11:40:55;;;;;;;;;;;12.60;99.90;;;;;;7365037;19;20030;-63
2023/04/11 11:43:22;;;;;;;5.15;1.60;;;13.20;99.90;;;;;;7360863;19;19927;-64
2023/04/11 11:46:08;;;;;;;7.07;1.75;;;13.40;99.90;;;;;;7369206;19;20371;-64
2023/04/11 11:48:34;;;;;;;7.47;1.85;;;13.50;99.90;;;;;;7369381;19;20011;-63
2023/04/11 11:51:01;;;;;;;9.85;2.03;;;13.40;99.90;;;;;;7372321;19;20026;-64
2023/04/11 11:53:27;;;;;;;5.43;1.65;;;13.90;99.90;;;;;;7371529;19;20093;-65
2023/04/11 11:55:53;;;;;;;6.68;1.70;;;14.20;99.90;;;;;;7369300;19;20034;-72
2023/04/11 11:58:20;;;;;;;9.45;1.58;;;14.20;99.90;;;;;;7372943;19;20022;-72
2023/04/11 12:00:49;;;;;;;12.63;2.00;;;14.40;98.60;;;;;;7369059;19;20023;-72
2023/04/11 12:03:23;;;;;;;9.10;2.22;;;14.70;99.90;;;;;;7369788;19;20018;-73
2023/04/11 12:05:53;;;;;;;5.90;1.50;;;15.30;90.50;;;;;;7364368;19;20022;-73
2023/04/11 12:08:22;;;;;;;9.23;2.03;;;14.50;76.40;;;;;;7369058;19;20033;-64
2023/04/11 12:10:50;;;;;;;9.43;1.77;;;13.80;91.40;;;;;;7374372;19;20356;-64
2023/04/11 12:13:25;;;;;;;8.05;2.10;;;13.20;93.70;;;;;;7370702;19;20023;-64
2023/04/11 12:15:56;;;;;;;8.77;2.25;;;13.50;99.70;;;;;;7370170;19;20356;-64
2023/04/11 12:18:24;;;;;;;8.27;1.80;;;13.00;95.10;;;;;;7368407;19;21114;-65
2023/04/11 12:20:50;;;;;;;6.60;1.75;;;13.00;97.00;;;;;;7373216;19;20482;-74
2023/04/11 12:23:17;;;;;;;7.75;1.60;;;13.70;98.20;;;;;;7371682;19;20018;-73
2023/04/11 12:26:04;;;;;;;6.25;1.58;;;14.60;94.30;;;;;;7361110;19;20022;-74
2023/04/11 12:28:50;;;;;;;9.82;1.95;;;15.60;90.90;;;;;;7360365;19;20007;-73
2023/04/11 12:31:37;;;;;;;4.95;1.30;;;15.70;75.40;;;;;;7369666;19;20358;-73
2023/04/11 12:34:23;;;;;;;6.95;1.67;;;15.60;64.90;;;;;;7366007;19;20018;-63
2023/04/11 12:37:09;;;;;;;6.20;1.90;;;15.40;66.80;;;;;;7367160;19;20018;-72
2023/04/11 12:39:59;;;;;;;5.22;1.50;;;14.70;68.50;;;;;;7373198;19;20022;-72
2023/04/11 12:42:47;;;;;;;4.82;1.40;;;15.00;71.20;;;;;;7370335;19;20022;-73
2023/04/11 12:45:33;;;;;;;7.03;1.77;;;15.20;69.60;;;;;;7370909;19;20473;-74
2023/04/11 12:48:19;;;;;;;6.90;1.50;;;15.30;64.30;;;;;;7373830;19;20017;-72
2023/04/11 12:51:05;;;;;;;7.50;1.73;;;15.60;62.90;;;;;;7371070;19;20019;-74
2023/04/11 12:53:52;;;;;;;7.15;1.63;;;15.90;60.00;;;;;;7361890;19;20039;-70
2023/04/11 12:56:39;;;;;;;7.28;1.92;;;15.40;60.90;;;;;;7360701;19;20022;-74
2023/04/11 12:59:26;;;;;;;6.18;1.90;;;16.20;63.40;;;;;;7371389;19;20014;-74
2023/04/11 13:02:13;;;;;;;8.85;1.85;;;16.80;61.10;;;;;;7371839;19;20021;-75